Eberle, Kentucky
Current Conditions -  °F | °C
As of 4:55 PM on Monday 24 Nov 2014 (Local Time) from KI39 Reporting Station
Clear Clear  
Wind Chill: 54°   Ceiling: Unl
Heat Index: 54°   Visibility: 10mi
Dew Point: 37°   Wind: 13mph
Humidity: 54%   Direction: 260°W
Pressure: 29.77"   Gusts: 18mph
Location:  37.4446°N, 84.0227°W
Report Text: KI39 242155Z AUTO 26011G16KT 10SM CLR 12/03 A2977 RMK AO2
Loading
Personal Weather Stations






























Interactive Weather Map New forecast layout! Learn more

10-Day Weather Forecast

Advertisements
Track Severe Weather on mobile